Time;durP1;ratioP1;P1;durP2;ratioP2;P2;SDS_P1;SDS_P2;PMS_P1;PMS_P2;Temp;Humidity;BMP_temperature;BMP_pressure;BME280_temperature;BME280_humidity;BME280_pressure;Samples;Min_cycle;Max_cycle;Signal;HPM_P1;HPM_P2
2021/11/01 00:00:52;;;;;;;6.13;5.53;;;10.70;99.90;;;;;;7387927;19;20323;-79
2021/11/01 00:03:18;;;;;;;7.35;5.45;;;10.60;99.90;;;;;;7388408;19;20370;-80
2021/11/01 00:05:45;;;;;;;7.95;6.88;;;10.60;99.90;;;;;;7388499;19;20309;-78
2021/11/01 00:08:11;;;;;;;5.87;5.27;;;10.60;99.90;;;;;;7389743;19;20380;-77
2021/11/01 00:10:36;;;;;;;5.95;5.00;;;10.50;99.90;;;;;;7388780;19;21200;-81
2021/11/01 00:13:02;;;;;;;4.73;4.33;;;10.50;99.90;;;;;;7389420;19;20677;-79
2021/11/01 00:15:28;;;;;;;7.53;5.75;;;10.50;99.90;;;;;;7389905;19;20312;-80
2021/11/01 00:17:54;;;;;;;4.85;4.35;;;10.40;99.90;;;;;;7389231;19;20335;-79
2021/11/01 00:20:21;;;;;;;6.13;5.00;;;10.40;99.90;;;;;;7392312;19;20313;-80
2021/11/01 00:22:47;;;;;;;5.93;5.33;;;10.30;99.90;;;;;;7385649;19;20348;-80
2021/11/01 00:25:13;;;;;;;4.68;4.22;;;10.30;99.90;;;;;;7384835;19;20331;-80
2021/11/01 00:27:39;;;;;;;5.20;3.93;;;10.40;99.90;;;;;;7389901;19;20348;-81
2021/11/01 00:30:06;;;;;;;4.63;4.20;;;10.20;99.90;;;;;;7387100;19;20363;-79
2021/11/01 00:32:32;;;;;;;4.85;4.38;;;10.20;99.90;;;;;;7387780;19;20301;-79
2021/11/01 00:34:59;;;;;;;4.70;4.20;;;10.10;99.90;;;;;;7388479;19;20304;-82
2021/11/01 00:37:28;;;;;;;7.40;6.13;;;10.00;99.90;;;;;;7385748;19;20312;-81
2021/11/01 00:39:55;;;;;;;6.28;5.68;;;10.00;99.90;;;;;;7383981;19;20361;-79
2021/11/01 00:42:21;;;;;;;4.60;4.10;;;10.00;99.90;;;;;;7387847;19;20312;-79
2021/11/01 00:44:47;;;;;;;7.95;6.70;;;9.90;99.90;;;;;;7397718;19;20340;-80
2021/11/01 00:47:13;;;;;;;6.60;5.37;;;9.90;99.90;;;;;;7392585;19;20665;-81
2021/11/01 00:49:39;;;;;;;7.63;6.85;;;9.80;99.90;;;;;;7392671;19;20293;-79
2021/11/01 00:52:04;;;;;;;7.13;5.60;;;9.80;99.90;;;;;;7388778;19;20348;-79
2021/11/01 00:54:30;;;;;;;8.68;7.55;;;9.80;99.90;;;;;;7389377;19;20388;-80
2021/11/01 00:56:56;;;;;;;6.77;6.07;;;9.80;99.90;;;;;;7388221;19;20352;-79
2021/11/01 00:59:21;;;;;;;6.20;5.60;;;9.70;99.90;;;;;;7387618;19;20765;-78
2021/11/01 01:01:47;;;;;;;6.20;5.40;;;9.70;99.90;;;;;;7389673;19;20348;-79
2021/11/01 01:04:14;;;;;;;7.68;6.90;;;9.70;99.90;;;;;;7385554;19;20348;-79
2021/11/01 01:06:40;;;;;;;7.15;5.60;;;9.70;99.90;;;;;;7385153;19;20332;-78
2021/11/01 01:09:05;;;;;;;6.90;6.30;;;9.70;99.90;;;;;;7385655;19;20303;-80
2021/11/01 01:11:31;;;;;;;8.15;7.03;;;9.70;99.90;;;;;;7384417;19;20336;-79
2021/11/01 01:13:57;;;;;;;6.80;5.00;;;9.70;99.90;;;;;;7385624;19;20305;-79
2021/11/01 01:16:27;;;;;;;7.22;5.80;;;9.70;99.90;;;;;;7383889;19;20661;-79
2021/11/01 01:18:56;;;;;;;6.10;5.35;;;9.70;99.90;;;;;;7384794;19;20376;-78
2021/11/01 01:24:06;;;;;;;5.70;4.73;;;9.60;99.90;;;;;;7382906;19;20346;-79
2021/11/01 01:26:32;;;;;;;7.45;6.72;;;9.60;99.90;;;;;;7383747;19;20293;-79
2021/11/01 01:28:58;;;;;;;6.97;6.13;;;9.60;99.90;;;;;;7384703;19;20312;-79
2021/11/01 01:31:24;;;;;;;7.15;6.45;;;9.60;99.90;;;;;;7381331;19;20341;-80
2021/11/01 01:33:50;;;;;;;6.40;5.80;;;9.60;99.90;;;;;;7383390;19;20325;-79
2021/11/01 01:36:15;;;;;;;6.73;5.80;;;9.60;99.90;;;;;;7384318;19;20329;-79
2021/11/01 01:38:41;;;;;;;6.43;5.63;;;9.60;99.90;;;;;;7383107;19;20352;-78
2021/11/01 01:41:13;;;;;;;6.68;6.00;;;9.60;99.90;;;;;;7383920;19;20329;-79
2021/11/01 01:43:40;;;;;;;8.15;6.90;;;9.60;99.90;;;;;;7384855;19;20450;-78
2021/11/01 01:46:06;;;;;;;7.90;7.10;;;9.60;99.90;;;;;;7382654;19;20381;-79
2021/11/01 01:48:31;;;;;;;7.30;6.60;;;9.60;99.90;;;;;;7383553;19;20669;-78
2021/11/01 01:50:58;;;;;;;9.60;7.40;;;9.70;99.90;;;;;;7384011;19;20986;-78
2021/11/01 01:53:24;;;;;;;7.93;7.03;;;9.70;99.90;;;;;;7383105;19;20333;-79
2021/11/01 01:55:50;;;;;;;6.65;6.00;;;9.60;99.90;;;;;;7383667;19;20364;-79
2021/11/01 01:58:15;;;;;;;7.23;6.50;;;9.60;99.90;;;;;;7384560;19;20365;-79
2021/11/01 02:01:03;;;;;;;7.80;6.65;;;9.60;99.90;;;;;;7383945;19;20333;-79
2021/11/01 02:03:29;;;;;;;7.28;6.57;;;9.50;99.90;;;;;;7383232;19;20328;-79
2021/11/01 02:06:08;;;;;;;7.30;6.27;;;9.50;99.90;;;;;;7382417;19;20416;-79
2021/11/01 02:08:47;;;;;;;9.02;7.72;;;9.60;99.90;;;;;;7280027;19;2012590;-79
2021/11/01 02:11:16;;;;;;;7.03;6.32;;;9.50;99.90;;;;;;7381447;19;20317;-79
2021/11/01 02:13:44;;;;;;;6.53;5.70;;;9.50;99.90;;;;;;7383031;19;20308;-79
2021/11/01 02:16:11;;;;;;;7.87;6.97;;;9.50;99.90;;;;;;7381000;19;20333;-79
2021/11/01 02:18:40;;;;;;;8.38;6.68;;;9.50;99.90;;;;;;7382847;19;20337;-79
2021/11/01 02:21:28;;;;;;;8.15;7.32;;;9.50;99.90;;;;;;7383281;19;20300;-79
2021/11/01 02:24:10;;;;;;;7.53;6.72;;;9.50;99.90;;;;;;7278308;19;2010673;-79
2021/11/01 02:26:36;;;;;;;8.67;7.17;;;9.50;99.90;;;;;;7381455;19;20939;-78
2021/11/01 02:29:02;;;;;;;8.90;6.63;;;9.50;99.90;;;;;;7383716;19;20348;-79
2021/11/01 02:31:27;;;;;;;6.97;6.27;;;9.40;99.90;;;;;;7382809;19;20711;-79
2021/11/01 02:33:53;;;;;;;8.93;6.70;;;9.40;99.90;;;;;;7381259;19;20717;-79
2021/11/01 02:36:19;;;;;;;7.37;6.63;;;9.40;99.90;;;;;;7382497;19;20296;-79
2021/11/01 02:38:49;;;;;;;8.67;7.13;;;9.40;99.90;;;;;;7382895;19;20876;-79
2021/11/01 02:41:20;;;;;;;7.72;6.82;;;9.30;99.90;;;;;;7382582;19;20329;-79
2021/11/01 02:43:53;;;;;;;7.65;6.70;;;9.30;99.90;;;;;;7380495;19;20351;-79
2021/11/01 02:46:19;;;;;;;9.60;7.28;;;9.30;99.90;;;;;;7382423;19;20844;-78
2021/11/01 02:48:48;;;;;;;7.40;6.57;;;9.30;99.90;;;;;;7382051;19;20355;-79
2021/11/01 02:51:17;;;;;;;7.40;6.70;;;9.30;99.90;;;;;;7383469;19;20449;-79
2021/11/01 02:53:47;;;;;;;6.57;5.97;;;9.30;99.90;;;;;;7381338;19;20332;-79
2021/11/01 02:56:13;;;;;;;7.40;6.65;;;9.30;99.90;;;;;;7384144;19;20343;-79
2021/11/01 02:58:40;;;;;;;9.88;8.07;;;9.20;99.90;;;;;;7380951;19;20344;-78
2021/11/01 03:01:17;;;;;;;8.75;7.75;;;9.20;99.90;;;;;;7381574;19;20337;-79
2021/11/01 03:03:43;;;;;;;6.97;6.35;;;9.20;99.90;;;;;;7380782;19;20331;-79
2021/11/01 03:06:10;;;;;;;7.30;6.60;;;9.20;99.90;;;;;;7380847;19;20301;-79
2021/11/01 03:08:36;;;;;;;7.82;6.65;;;9.20;99.90;;;;;;7380065;19;20675;-78
2021/11/01 03:11:01;;;;;;;6.90;6.15;;;9.10;99.90;;;;;;7358431;19;20399;-79
2021/11/01 03:13:28;;;;;;;8.57;7.15;;;9.10;99.90;;;;;;7380278;19;20728;-79
2021/11/01 03:15:55;;;;;;;7.70;6.22;;;9.20;99.90;;;;;;7381266;19;20412;-78
2021/11/01 03:18:20;;;;;;;5.38;4.80;;;9.10;99.90;;;;;;7385368;19;20337;-79
2021/11/01 03:20:46;;;;;;;7.47;6.67;;;9.10;99.90;;;;;;7381330;19;20352;-79
2021/11/01 03:23:22;;;;;;;6.68;6.05;;;9.10;99.90;;;;;;7383512;19;20369;-78
2021/11/01 03:26:04;;;;;;;5.20;4.73;;;9.10;99.90;;;;;;7380512;19;20313;-79
2021/11/01 03:28:30;;;;;;;6.60;6.00;;;9.00;99.90;;;;;;7379451;19;20344;-78
2021/11/01 03:30:56;;;;;;;7.60;6.88;;;8.90;99.90;;;;;;7379586;19;20324;-79
2021/11/01 03:33:22;;;;;;;6.53;5.93;;;8.90;99.90;;;;;;7380340;19;20335;-79
2021/11/01 03:35:48;;;;;;;6.70;6.10;;;8.90;99.90;;;;;;7379330;19;22017;-79
2021/11/01 03:38:14;;;;;;;5.38;4.88;;;8.70;99.90;;;;;;7381554;19;20309;-78
2021/11/01 03:40:42;;;;;;;6.07;5.55;;;8.70;99.90;;;;;;7357355;19;20340;-78
2021/11/01 03:43:08;;;;;;;7.15;6.15;;;8.70;99.90;;;;;;7380033;19;20356;-79
2021/11/01 03:45:34;;;;;;;5.32;4.82;;;8.70;99.90;;;;;;7382795;19;20361;-79
2021/11/01 03:48:03;;;;;;;5.95;5.07;;;8.70;99.90;;;;;;7379666;19;20753;-79
2021/11/01 03:50:58;;;;;;;6.60;5.80;;;8.70;99.90;;;;;;7378820;19;20324;-78
2021/11/01 03:53:18;;;;;;;5.97;5.38;;;8.60;99.90;;;;;;7378514;19;20934;-78
2021/11/01 03:55:45;;;;;;;4.70;4.30;;;8.60;99.90;;;;;;7380784;19;20323;-79
2021/11/01 03:58:12;;;;;;;5.43;4.70;;;8.60;99.90;;;;;;7380392;19;20323;-78
2021/11/01 04:00:38;;;;;;;6.73;6.13;;;8.60;99.90;;;;;;7378768;19;20352;-79
2021/11/01 04:03:04;;;;;;;8.43;7.20;;;8.60;99.90;;;;;;7380624;19;20341;-79
2021/11/01 04:05:30;;;;;;;6.00;5.40;;;8.60;99.90;;;;;;7380059;19;20312;-78
2021/11/01 04:07:56;;;;;;;7.30;5.93;;;8.60;99.90;;;;;;7377321;19;20401;-79
2021/11/01 04:10:23;;;;;;;6.88;5.65;;;8.50;99.90;;;;;;7358546;19;20320;-79
2021/11/01 04:12:48;;;;;;;5.50;5.00;;;8.50;99.90;;;;;;7372618;19;20752;-78
2021/11/01 04:15:20;;;;;;;7.93;6.97;;;8.50;99.90;;;;;;7382653;19;20364;-79
2021/11/01 04:17:48;;;;;;;6.00;5.43;;;8.40;99.90;;;;;;7386719;19;20313;-80
2021/11/01 04:22:49;;;;;;;5.75;5.25;;;8.40;99.90;;;;;;7385421;19;20416;-78
2021/11/01 04:25:15;;;;;;;7.13;6.43;;;8.40;99.90;;;;;;7385679;19;20693;-79
2021/11/01 04:27:41;;;;;;;6.63;6.00;;;8.30;99.90;;;;;;7386748;19;20864;-79
2021/11/01 04:30:08;;;;;;;5.57;5.07;;;8.30;99.90;;;;;;7385670;19;20325;-79
2021/11/01 04:32:44;;;;;;;5.88;5.28;;;8.30;99.90;;;;;;7387081;19;20875;-79
2021/11/01 04:37:41;;;;;;;5.30;4.82;;;8.20;99.90;;;;;;7386499;19;20912;-79
2021/11/01 04:40:24;;;;;;;5.53;5.03;;;8.20;99.90;;;;;;7385768;19;20321;-79
2021/11/01 04:53:38;;;;;;;4.80;4.30;;;8.10;99.90;;;;;;7384770;19;20317;-79
2021/11/01 04:56:04;;;;;;;6.57;5.97;;;8.10;99.90;;;;;;7382615;19;20328;-79
2021/11/01 04:58:29;;;;;;;6.72;5.63;;;8.00;99.90;;;;;;7385123;19;20663;-79
2021/11/01 05:00:55;;;;;;;6.93;6.23;;;8.00;99.90;;;;;;7384727;19;20382;-80
2021/11/01 05:05:47;;;;;;;5.90;5.30;;;8.10;99.90;;;;;;7383462;19;20371;-80
2021/11/01 05:08:14;;;;;;;7.47;6.68;;;8.10;99.90;;;;;;7386825;19;20980;-79
2021/11/01 05:10:41;;;;;;;5.95;5.32;;;8.00;99.90;;;;;;7362219;19;20831;-79
2021/11/01 05:13:12;;;;;;;6.35;5.55;;;8.10;99.90;;;;;;7384452;19;20348;-78
2021/11/01 05:18:31;;;;;;;6.03;5.43;;;8.00;99.90;;;;;;7386242;19;20867;-79
2021/11/01 05:23:49;;;;;;;7.07;6.35;;;8.00;99.90;;;;;;7383364;19;20431;-77
2021/11/01 05:26:21;;;;;;;8.32;6.97;;;8.00;99.90;;;;;;7383746;19;20355;-78
2021/11/01 05:28:57;;;;;;;7.75;6.13;;;8.00;99.90;;;;;;7385629;19;21237;-80
2021/11/01 05:31:27;;;;;;;6.38;5.78;;;8.10;99.90;;;;;;7384567;19;20320;-78
2021/11/01 05:36:19;;;;;;;7.80;7.00;;;7.90;99.90;;;;;;7382924;19;20453;-79
2021/11/01 05:38:44;;;;;;;22.58;16.65;;;7.90;99.90;;;;;;7383296;19;20359;-79
2021/11/01 05:41:10;;;;;;;8.17;7.37;;;7.90;99.90;;;;;;7384126;19;20731;-79
2021/11/01 05:43:36;;;;;;;7.25;6.38;;;7.90;99.90;;;;;;7386210;19;20385;-80
2021/11/01 05:46:02;;;;;;;8.95;7.35;;;7.90;99.90;;;;;;7386322;19;20331;-78
2021/11/01 05:48:28;;;;;;;9.60;8.60;;;7.90;99.90;;;;;;7388153;19;20336;-79
2021/11/01 05:50:53;;;;;;;10.37;8.30;;;8.10;99.90;;;;;;7387792;19;20328;-78
2021/11/01 05:53:19;;;;;;;11.60;8.23;;;8.10;99.90;;;;;;7384043;19;20337;-79
2021/11/01 05:58:35;;;;;;;10.37;8.57;;;8.20;99.90;;;;;;7379372;19;20320;-79
2021/11/01 06:07:19;;;;;;;7.22;6.53;;;8.30;99.90;;;;;;7273541;19;2007860;-80
2021/11/01 06:14:39;;;;;;;8.57;7.25;;;8.30;99.90;;;;;;7368737;19;20732;-81
2021/11/01 06:17:24;;;;;;;9.18;7.72;;;8.30;99.90;;;;;;7402288;19;20851;-81
2021/11/01 06:21:06;;;;;;;8.10;7.28;;;8.30;99.90;;;;;;7351171;19;20678;-81
2021/11/01 06:24:36;;;;;;;8.15;7.32;;;8.30;99.90;;;;;;7395824;19;20370;-81
2021/11/01 06:27:29;;;;;;;9.40;8.35;;;8.30;99.90;;;;;;7272966;19;20345;-81
2021/11/01 06:42:51;;;;;;;9.23;8.00;;;8.70;99.90;;;;;;7349722;19;20700;-79
2021/11/01 06:46:02;;;;;;;8.23;7.15;;;8.70;99.90;;;;;;7252557;19;2004325;-80
2021/11/01 06:57:32;;;;;;;8.25;7.47;;;8.90;99.90;;;;;;7358664;19;25121;-80
2021/11/01 07:16:45;;;;;;;8.40;7.45;;;9.30;99.90;;;;;;7382703;19;20673;-80
2021/11/01 07:30:48;;;;;;;10.07;8.52;;;9.80;99.90;;;;;;7282426;19;2009667;-79
2021/11/01 07:38:55;;;;;;;9.93;8.57;;;10.10;99.90;;;;;;7382380;19;20421;-79
2021/11/01 08:24:58;;;;;;;8.10;7.30;;;11.30;99.90;;;;;;7395825;19;20358;-82
2021/11/01 08:36:09;;;;;;;6.82;6.20;;;12.10;99.90;;;;;;7395302;19;20385;-79
2021/11/01 08:51:43;;;;;;;8.95;6.93;;;12.70;99.90;;;;;;7386251;19;21204;-80
2021/11/01 09:02:39;;;;;;;9.75;7.72;;;12.80;99.90;;;;;;7287449;19;2004792;-80
2021/11/01 09:05:32;;;;;;;8.18;7.38;;;12.90;99.90;;;;;;7393143;19;20336;-80
2021/11/01 09:11:17;;;;;;;9.25;7.10;;;13.00;99.90;;;;;;7290250;19;2008938;-80
2021/11/01 09:18:45;;;;;;;8.15;7.20;;;12.90;99.90;;;;;;7300158;19;2009976;-82
2021/11/01 09:24:41;;;;;;;10.32;7.78;;;13.00;99.90;;;;;;7400905;19;20348;-81
2021/11/01 09:27:08;;;;;;;7.47;6.78;;;13.00;99.90;;;;;;7406206;19;20341;-83
2021/11/01 09:38:15;;;;;;;7.07;6.47;;;13.00;99.90;;;;;;7415093;19;20325;-80
2021/11/01 09:40:56;;;;;;;7.15;6.45;;;13.00;99.90;;;;;;7420039;19;20340;-86
2021/11/01 09:43:23;;;;;;;7.47;6.75;;;13.00;99.90;;;;;;7419691;19;20335;-89
2021/11/01 09:45:48;;;;;;;7.30;6.35;;;12.90;99.90;;;;;;7417505;19;20317;-85
2021/11/01 09:48:15;;;;;;;11.65;6.88;;;13.00;99.90;;;;;;7415951;19;20372;-87
2021/11/01 09:50:40;;;;;;;8.43;7.32;;;13.10;99.90;;;;;;7417964;19;20296;-86
2021/11/01 09:53:15;;;;;;;7.93;6.30;;;13.10;99.90;;;;;;7419234;19;20443;-85
2021/11/01 10:01:01;;;;;;;7.97;7.15;;;13.20;99.90;;;;;;7389400;19;20325;-81
2021/11/01 10:03:36;;;;;;;9.82;7.38;;;13.30;99.90;;;;;;7393816;19;20351;-81
2021/11/01 10:06:02;;;;;;;7.88;7.10;;;13.40;99.90;;;;;;7393790;19;20309;-80
2021/11/01 10:08:30;;;;;;;8.07;6.80;;;13.30;99.90;;;;;;7393515;19;20336;-79
2021/11/01 10:10:57;;;;;;;7.15;6.45;;;13.30;99.90;;;;;;7395878;19;20320;-80
2021/11/01 10:13:27;;;;;;;6.50;5.80;;;13.30;99.90;;;;;;7398475;19;20364;-80
2021/11/01 10:18:43;;;;;;;11.45;5.78;;;13.40;99.90;;;;;;7391824;19;20348;-81
2021/11/01 10:21:09;;;;;;;6.50;5.90;;;13.50;99.90;;;;;;7394010;19;20360;-80
2021/11/01 10:23:35;;;;;;;7.10;5.30;;;13.60;99.90;;;;;;7394606;19;20356;-80
2021/11/01 10:26:08;;;;;;;6.47;5.70;;;13.60;99.90;;;;;;7388763;19;20896;-81
2021/11/01 10:28:35;;;;;;;5.85;5.30;;;13.60;99.90;;;;;;7393437;19;20357;-80
2021/11/01 10:31:17;;;;;;;6.33;5.73;;;13.60;99.90;;;;;;7394231;19;20345;-81
2021/11/01 10:33:45;;;;;;;7.03;5.70;;;13.50;99.90;;;;;;7288383;19;2010203;-81
2021/11/01 10:36:28;;;;;;;6.10;5.40;;;13.50;99.90;;;;;;7394356;19;20438;-79
2021/11/01 10:39:03;;;;;;;6.68;5.97;;;13.50;99.90;;;;;;7288670;19;2020152;-82
2021/11/01 10:42:14;;;;;;;6.35;5.72;;;13.50;99.90;;;;;;7394918;19;20358;-82
2021/11/01 10:56:40;;;;;;;5.78;5.18;;;13.50;99.90;;;;;;7317569;19;2008318;-89
2021/11/01 11:14:17;;;;;;;5.28;4.78;;;13.70;99.90;;;;;;7315790;19;2004591;-92
2021/11/01 11:25:08;;;;;;;5.00;4.15;;;13.70;99.90;;;;;;7326049;19;2004331;-89
2021/11/01 11:40:10;;;;;;;3.50;3.20;;;13.90;99.90;;;;;;7394199;19;20360;-92
2021/11/01 11:51:08;;;;;;;5.10;3.97;;;14.10;99.90;;;;;;7432542;19;20364;-92
2021/11/01 11:53:35;;;;;;;4.23;3.83;;;14.10;99.90;;;;;;7235062;19;2004504;-90
2021/11/01 11:56:24;;;;;;;4.27;3.87;;;13.90;99.90;;;;;;7325956;19;2004384;-90
2021/11/01 11:59:10;;;;;;;4.00;3.60;;;14.10;99.90;;;;;;7402450;19;20346;-90
2021/11/01 12:01:55;;;;;;;5.45;4.65;;;14.10;99.90;;;;;;7400507;19;20337;-92
2021/11/01 12:04:29;;;;;;;4.88;4.30;;;14.20;99.90;;;;;;7305272;19;2004403;-92
2021/11/01 12:07:09;;;;;;;5.47;4.03;;;14.20;99.90;;;;;;7408515;19;20318;-91
2021/11/01 12:30:09;;;;;;;5.00;4.47;;;14.10;99.90;;;;;;7414329;19;20420;-90
2021/11/01 12:35:48;;;;;;;5.70;4.07;;;13.90;99.90;;;;;;7431547;19;20372;-93
2021/11/01 12:58:38;;;;;;;5.25;4.75;;;13.90;99.90;;;;;;7288050;19;2004495;-90
2021/11/01 13:01:25;;;;;;;4.32;3.92;;;13.90;99.90;;;;;;7357083;19;20333;-90
2021/11/01 13:04:12;;;;;;;4.88;4.47;;;13.90;99.90;;;;;;7352724;19;20349;-89
2021/11/01 13:06:58;;;;;;;4.55;4.15;;;13.80;99.90;;;;;;7374624;19;20309;-89
2021/11/01 13:09:27;;;;;;;7.10;6.32;;;13.80;99.90;;;;;;7368193;19;20317;-91
2021/11/01 13:18:21;;;;;;;7.90;5.53;;;13.70;99.90;;;;;;7304422;19;2003946;-92
2021/11/01 13:21:12;;;;;;;6.40;5.73;;;13.70;99.90;;;;;;7420855;19;20317;-90
2021/11/01 13:24:06;;;;;;;7.05;6.35;;;13.60;99.90;;;;;;7293685;19;2004242;-88
2021/11/01 13:27:25;;;;;;;7.20;6.50;;;13.60;99.90;;;;;;7401861;19;20321;-91
2021/11/01 13:35:28;;;;;;;6.70;6.00;;;13.50;99.90;;;;;;7372856;19;20330;-89
2021/11/01 13:38:01;;;;;;;5.93;5.32;;;13.40;99.90;;;;;;7322343;19;2004414;-89
2021/11/01 13:40:33;;;;;;;6.15;5.55;;;13.20;99.90;;;;;;7319051;19;2004253;-88
2021/11/01 13:42:59;;;;;;;6.28;5.65;;;13.30;99.90;;;;;;7422811;19;20300;-88
2021/11/01 13:45:26;;;;;;;5.07;4.40;;;13.20;99.90;;;;;;7421051;19;20321;-88
2021/11/01 13:47:58;;;;;;;7.55;5.95;;;13.20;99.90;;;;;;7422455;19;20406;-92
2021/11/01 13:50:28;;;;;;;6.28;5.68;;;13.20;99.90;;;;;;7320864;19;2004324;-89
2021/11/01 13:52:58;;;;;;;10.87;7.07;;;13.10;99.90;;;;;;7422248;19;20368;-88
2021/11/01 13:55:34;;;;;;;6.85;6.18;;;13.10;99.90;;;;;;7423318;19;20405;-88
2021/11/01 13:58:36;;;;;;;7.90;6.50;;;12.90;99.90;;;;;;7421773;19;20340;-90
2021/11/01 14:11:57;;;;;;;18.00;15.50;;;12.80;99.90;;;;;;7316953;19;2004204;-90
2021/11/01 14:17:00;;;;;;;18.45;15.52;;;12.70;99.90;;;;;;7420057;19;20320;-88
2021/11/01 14:20:05;;;;;;;21.27;17.88;;;12.60;99.90;;;;;;7422879;19;20326;-88
2021/11/01 14:28:17;;;;;;;20.33;15.68;;;12.40;99.90;;;;;;7294563;19;2004222;-88
2021/11/01 14:31:02;;;;;;;12.85;11.18;;;12.50;99.90;;;;;;7304808;19;2007472;-89
2021/11/01 14:57:00;;;;;;;22.92;19.45;;;12.40;99.90;;;;;;7316761;19;2004440;-91
2021/11/01 15:15:42;;;;;;;23.10;16.50;;;12.30;99.90;;;;;;7319054;19;2007078;-87
2021/11/01 15:20:49;;;;;;;14.52;11.00;;;12.20;99.90;;;;;;7417043;19;20352;-88
2021/11/01 15:23:31;;;;;;;10.53;8.97;;;12.10;99.90;;;;;;7413708;19;20325;-87
2021/11/01 15:36:47;;;;;;;15.45;12.00;;;12.00;99.90;;;;;;7412591;19;20392;-89
2021/11/01 16:19:49;;;;;;;8.55;7.32;;;11.50;99.90;;;;;;7419596;19;20371;-83
2021/11/01 16:22:17;;;;;;;10.85;9.15;;;11.50;99.90;;;;;;7415920;19;20340;-86
2021/11/01 16:24:42;;;;;;;10.38;9.32;;;11.40;99.90;;;;;;7415770;19;20296;-88
2021/11/01 16:27:09;;;;;;;8.53;7.73;;;11.30;99.90;;;;;;7417820;19;20309;-88
2021/11/01 16:32:24;;;;;;;11.02;9.35;;;11.30;99.90;;;;;;7316136;19;2006719;-83
2021/11/01 16:34:54;;;;;;;10.20;8.68;;;11.40;99.90;;;;;;7415303;19;20320;-85
2021/11/01 16:37:26;;;;;;;11.02;9.90;;;11.40;99.90;;;;;;7415408;19;20325;-85
2021/11/01 16:39:51;;;;;;;12.95;10.73;;;11.40;99.90;;;;;;7406930;19;21383;-82
2021/11/01 16:42:26;;;;;;;12.48;11.18;;;11.30;99.90;;;;;;7400485;19;20384;-84
2021/11/01 16:44:52;;;;;;;11.07;9.83;;;11.20;99.90;;;;;;7381349;19;20395;-84
2021/11/01 16:47:18;;;;;;;15.43;11.00;;;11.20;99.90;;;;;;7406720;19;20349;-83
2021/11/01 16:49:45;;;;;;;13.77;10.43;;;11.20;99.90;;;;;;7402345;19;20368;-85
2021/11/01 16:52:20;;;;;;;12.82;11.18;;;11.20;99.90;;;;;;7410390;19;20366;-82
2021/11/01 16:54:55;;;;;;;10.40;9.40;;;11.20;99.90;;;;;;7406601;19;20320;-83
2021/11/01 16:57:24;;;;;;;13.73;10.48;;;11.10;99.90;;;;;;7311794;19;2004450;-86
2021/11/01 17:02:34;;;;;;;10.35;9.25;;;11.10;99.90;;;;;;7417765;19;20316;-87
2021/11/01 17:05:20;;;;;;;12.00;10.80;;;11.20;99.90;;;;;;7417527;19;20384;-90
2021/11/01 17:10:41;;;;;;;13.43;12.03;;;11.10;99.90;;;;;;7409409;19;20326;-87
2021/11/01 17:25:28;;;;;;;2.08;1.88;;;10.40;99.90;;;;;;7335493;19;20317;-85
2021/11/01 17:35:19;;;;;;;1.33;1.23;;;10.20;99.90;;;;;;7309146;19;20339;-81
2021/11/01 18:51:53;;;;;;;2.13;1.92;;;10.30;99.90;;;;;;7415868;19;20641;-86
2021/11/01 18:54:22;;;;;;;8.88;7.97;;;10.30;99.90;;;;;;7418729;19;20332;-86
2021/11/01 18:56:49;;;;;;;3.22;2.92;;;10.20;99.90;;;;;;7416690;19;20397;-87
2021/11/01 18:59:18;;;;;;;3.63;3.33;;;10.20;99.90;;;;;;7417893;19;20321;-88
2021/11/01 19:01:49;;;;;;;5.00;4.50;;;10.20;99.90;;;;;;7417850;19;20324;-87
2021/11/01 19:04:21;;;;;;;3.88;3.00;;;10.30;99.90;;;;;;7416191;19;20357;-88
2021/11/01 19:06:59;;;;;;;2.90;2.70;;;10.30;99.90;;;;;;7418062;19;20340;-88
2021/11/01 20:03:05;;;;;;;2.57;2.20;;;10.00;99.90;;;;;;7318521;19;2004615;-90
2021/11/01 20:05:31;;;;;;;3.22;2.92;;;10.10;99.90;;;;;;7313591;19;2004465;-82
2021/11/01 21:25:15;;;;;;;3.17;2.88;;;9.70;99.90;;;;;;7300225;19;2004511;-83
2021/11/01 21:27:43;;;;;;;3.10;2.80;;;9.70;99.90;;;;;;7386922;19;20717;-86
2021/11/01 21:30:11;;;;;;;3.58;2.83;;;9.70;99.90;;;;;;7379598;19;20856;-80
2021/11/01 21:32:38;;;;;;;3.33;3.03;;;9.70;99.90;;;;;;7375182;19;20352;-81
2021/11/01 21:35:07;;;;;;;3.90;3.50;;;9.70;99.90;;;;;;7348003;19;20325;-80
2021/11/01 21:37:33;;;;;;;2.70;2.50;;;9.70;99.90;;;;;;7386352;19;20337;-79
2021/11/01 21:40:00;;;;;;;2.85;2.53;;;9.70;99.90;;;;;;7364693;19;20370;-79
2021/11/01 21:42:27;;;;;;;3.75;3.45;;;9.70;99.90;;;;;;7387760;19;20311;-80
2021/11/01 21:44:52;;;;;;;3.63;2.95;;;9.70;99.90;;;;;;7390494;19;20419;-79
2021/11/01 21:47:19;;;;;;;3.17;2.95;;;9.70;99.90;;;;;;7386842;19;20910;-80
2021/11/01 21:49:47;;;;;;;3.50;3.20;;;9.70;99.90;;;;;;7387520;19;20317;-78
2021/11/01 21:52:15;;;;;;;3.55;2.95;;;9.70;99.90;;;;;;7383215;19;20404;-78
2021/11/01 21:54:50;;;;;;;4.55;4.13;;;9.60;99.90;;;;;;7369298;19;20399;-81
2021/11/01 21:57:36;;;;;;;3.20;2.90;;;9.60;99.90;;;;;;7391398;19;20341;-80
2021/11/01 22:17:54;;;;;;;2.97;2.70;;;9.70;99.90;;;;;;7386635;19;20330;-79
2021/11/01 22:20:13;;;;;;;3.45;3.15;;;9.80;99.90;;;;;;7388196;19;21483;-80
2021/11/01 22:22:45;;;;;;;3.00;2.50;;;9.70;99.90;;;;;;7388960;19;20368;-80
2021/11/01 22:25:19;;;;;;;4.95;3.22;;;9.60;99.90;;;;;;7386508;19;20934;-79
2021/11/01 22:39:07;;;;;;;2.50;2.30;;;9.60;99.90;;;;;;7385713;19;20303;-79
2021/11/01 22:41:36;;;;;;;2.78;2.58;;;9.60;99.90;;;;;;7283392;19;2009680;-77
2021/11/01 22:44:35;;;;;;;2.63;2.42;;;9.60;99.90;;;;;;7384928;19;20413;-80
2021/11/01 22:47:28;;;;;;;4.13;3.75;;;9.60;99.90;;;;;;7285049;19;2010206;-79
2021/11/01 22:58:06;;;;;;;5.20;4.70;;;9.60;99.90;;;;;;7282637;19;2011375;-79
2021/11/01 23:00:38;;;;;;;5.28;4.78;;;9.50;99.90;;;;;;7385169;19;20409;-78
2021/11/01 23:03:13;;;;;;;5.45;4.95;;;9.50;99.90;;;;;;7385778;19;21214;-79
2021/11/01 23:33:05;;;;;;;4.88;4.47;;;9.60;99.90;;;;;;7382652;19;20319;-79
2021/11/01 23:35:30;;;;;;;5.27;4.77;;;9.60;99.90;;;;;;7384129;19;20903;-78
2021/11/01 23:37:56;;;;;;;4.93;4.45;;;9.60;99.90;;;;;;7384969;19;20926;-79
2021/11/01 23:40:22;;;;;;;5.03;4.53;;;9.60;99.90;;;;;;7387016;19;20369;-79
2021/11/01 23:42:48;;;;;;;5.10;4.60;;;9.60;99.90;;;;;;7383363;19;20332;-79
2021/11/01 23:45:13;;;;;;;7.05;5.28;;;9.60;99.90;;;;;;7382700;19;20326;-79
2021/11/01 23:47:39;;;;;;;5.10;4.60;;;9.60;99.90;;;;;;7381539;19;20305;-83
2021/11/01 23:50:05;;;;;;;7.03;5.40;;;9.60;99.90;;;;;;7382016;19;20332;-79
2021/11/01 23:52:39;;;;;;;7.32;5.50;;;9.60;99.90;;;;;;7381309;19;20369;-79
2021/11/01 23:55:06;;;;;;;6.40;5.50;;;9.60;99.90;;;;;;7383499;19;20364;-79
2021/11/01 23:57:31;;;;;;;6.70;6.00;;;9.60;99.90;;;;;;7383741;19;20340;-79
2021/11/01 23:59:57;;;;;;;6.50;5.30;;;9.60;99.90;;;;;;7383714;19;21035;-79
